Time;durP1;ratioP1;P1;durP2;ratioP2;P2;SDS_P1;SDS_P2;PMS_P1;PMS_P2;Temp;Humidity;BMP_temperature;BMP_pressure;BME280_temperature;BME280_humidity;BME280_pressure;Samples;Min_cycle;Max_cycle;Signal;HPM_P1;HPM_P2
2022/01/31 00:02:07;;;;;;;11.98;4.65;;;0.50;99.90;;;;;;5091796;28;20207;-72
2022/01/31 00:04:34;;;;;;;11.80;5.30;;;0.40;99.90;;;;;;5091599;28;20207;-71
2022/01/31 00:07:02;;;;;;;11.75;3.88;;;0.40;99.90;;;;;;5091599;28;20211;-72
2022/01/31 00:09:28;;;;;;;7.50;4.45;;;0.40;99.90;;;;;;5091599;28;20227;-72
2022/01/31 00:11:59;;;;;;;9.13;4.25;;;0.30;99.90;;;;;;5091518;28;20207;-71
2022/01/31 00:14:36;;;;;;;6.10;4.43;;;0.30;99.90;;;;;;5091220;28;20258;-70
2022/01/31 00:17:03;;;;;;;8.57;4.40;;;0.30;99.90;;;;;;5091584;28;20514;-71
2022/01/31 00:19:30;;;;;;;13.05;5.10;;;0.30;99.90;;;;;;5091379;28;20706;-70
2022/01/31 00:21:57;;;;;;;5.88;4.50;;;0.30;99.90;;;;;;5091167;28;20686;-71
2022/01/31 00:24:24;;;;;;;7.60;4.07;;;0.20;99.90;;;;;;5090998;28;20286;-71
2022/01/31 00:26:51;;;;;;;12.75;4.85;;;0.20;99.90;;;;;;5091206;28;20702;-70
2022/01/31 00:29:18;;;;;;;9.25;4.25;;;0.20;99.90;;;;;;5091468;28;20659;-71
2022/01/31 00:31:46;;;;;;;8.48;4.60;;;0.20;99.90;;;;;;5091446;28;20230;-71
2022/01/31 00:34:13;;;;;;;8.95;5.00;;;0.20;99.90;;;;;;5090688;28;20586;-69
2022/01/31 00:36:39;;;;;;;9.40;5.55;;;0.20;99.90;;;;;;5091146;28;20231;-71
2022/01/31 00:39:07;;;;;;;11.10;5.38;;;0.20;99.90;;;;;;5090827;28;20203;-71
2022/01/31 00:41:33;;;;;;;12.18;4.28;;;0.20;99.90;;;;;;5091133;28;20206;-71
2022/01/31 00:44:02;;;;;;;8.25;4.28;;;0.20;99.90;;;;;;5090420;28;20196;-70
2022/01/31 00:46:37;;;;;;;8.00;5.07;;;0.20;99.90;;;;;;5091062;28;20223;-73
2022/01/31 00:49:11;;;;;;;9.35;5.00;;;0.20;99.90;;;;;;5090978;28;20226;-70
2022/01/31 00:51:38;;;;;;;11.82;4.28;;;0.20;99.90;;;;;;5091095;28;20206;-71
2022/01/31 00:54:05;;;;;;;5.40;4.05;;;0.30;99.90;;;;;;5089447;28;20224;-71
2022/01/31 00:56:31;;;;;;;10.25;4.63;;;0.30;99.90;;;;;;5090758;28;20224;-71
2022/01/31 00:58:58;;;;;;;6.00;5.18;;;0.30;99.90;;;;;;5090803;28;20199;-71
2022/01/31 01:01:25;;;;;;;11.43;4.53;;;0.40;99.90;;;;;;5090852;28;20204;-71
2022/01/31 01:03:51;;;;;;;12.98;4.72;;;0.50;99.90;;;;;;5090338;28;20223;-71
2022/01/31 01:06:20;;;;;;;7.15;4.22;;;0.50;99.90;;;;;;5090989;28;20246;-72
2022/01/31 01:08:46;;;;;;;11.48;5.28;;;0.60;99.90;;;;;;5090791;28;20203;-71
2022/01/31 01:11:13;;;;;;;9.13;5.45;;;0.60;99.90;;;;;;5090939;28;20593;-71
2022/01/31 01:13:40;;;;;;;7.85;4.93;;;0.60;99.90;;;;;;5090238;28;20210;-71
2022/01/31 01:16:06;;;;;;;11.68;4.30;;;0.60;99.90;;;;;;5090534;28;20224;-71
2022/01/31 01:18:33;;;;;;;13.00;4.57;;;0.70;99.90;;;;;;5090667;28;20199;-71
2022/01/31 01:21:00;;;;;;;13.93;4.97;;;0.80;99.90;;;;;;5090494;28;20211;-71
2022/01/31 01:23:28;;;;;;;8.32;4.78;;;0.80;99.90;;;;;;5090038;28;20203;-70
2022/01/31 01:25:55;;;;;;;7.25;4.10;;;0.80;99.90;;;;;;5090496;28;20226;-71
2022/01/31 01:28:23;;;;;;;5.38;4.05;;;0.90;99.90;;;;;;5090941;28;20203;-72
2022/01/31 01:30:50;;;;;;;7.63;4.10;;;0.90;99.90;;;;;;5090683;28;20585;-72
2022/01/31 01:33:21;;;;;;;10.73;4.75;;;0.90;99.90;;;;;;5090379;28;20210;-71
2022/01/31 01:35:50;;;;;;;6.68;4.45;;;1.00;99.90;;;;;;5090361;28;20595;-72
2022/01/31 01:38:18;;;;;;;16.20;5.45;;;1.00;99.90;;;;;;5090594;28;20261;-72
2022/01/31 01:40:47;;;;;;;9.00;4.32;;;1.00;99.90;;;;;;5090629;28;20291;-72
2022/01/31 01:43:16;;;;;;;8.75;4.72;;;1.10;99.90;;;;;;5090196;28;20575;-72
2022/01/31 01:45:44;;;;;;;8.63;4.68;;;1.10;99.90;;;;;;5091507;28;20216;-72
2022/01/31 01:48:11;;;;;;;12.15;4.53;;;1.10;99.90;;;;;;5091861;28;20208;-72
2022/01/31 01:50:40;;;;;;;6.90;4.25;;;1.10;99.90;;;;;;5092294;28;20199;-71
2022/01/31 01:53:08;;;;;;;13.70;4.15;;;1.10;99.90;;;;;;5090510;28;20203;-71
2022/01/31 01:55:34;;;;;;;6.95;3.72;;;1.10;99.90;;;;;;5090827;28;20227;-70
2022/01/31 01:58:05;;;;;;;9.90;4.65;;;1.10;99.90;;;;;;5090256;28;20211;-71
2022/01/31 02:00:49;;;;;;;12.20;4.78;;;1.00;99.90;;;;;;5090696;28;20282;-71
2022/01/31 02:03:16;;;;;;;8.10;3.97;;;1.00;99.90;;;;;;5089983;28;20199;-71
2022/01/31 02:05:43;;;;;;;10.57;4.35;;;1.00;99.90;;;;;;5092083;28;20216;-72
2022/01/31 02:08:12;;;;;;;10.45;4.45;;;1.10;99.90;;;;;;5094198;28;20203;-70
2022/01/31 02:10:39;;;;;;;6.80;4.40;;;1.10;99.90;;;;;;5094189;28;20689;-71
2022/01/31 02:13:08;;;;;;;9.60;4.88;;;1.10;99.90;;;;;;5094137;28;20877;-72
2022/01/31 02:15:36;;;;;;;8.05;4.82;;;1.20;99.90;;;;;;5093922;28;20227;-73
2022/01/31 02:18:03;;;;;;;14.80;5.25;;;1.10;99.90;;;;;;5094083;28;20290;-72
2022/01/31 02:20:30;;;;;;;13.50;5.85;;;1.00;99.90;;;;;;5093913;28;20619;-72
2022/01/31 02:22:58;;;;;;;7.35;4.05;;;1.00;99.90;;;;;;5093325;28;20207;-72
2022/01/31 02:25:25;;;;;;;11.80;4.70;;;1.00;99.90;;;;;;5093735;28;20222;-71
2022/01/31 02:27:51;;;;;;;10.10;4.50;;;1.00;99.90;;;;;;5093661;28;20297;-72
2022/01/31 02:30:18;;;;;;;7.90;4.65;;;1.10;99.90;;;;;;5093873;28;20196;-72
2022/01/31 02:32:46;;;;;;;11.68;5.22;;;1.10;99.90;;;;;;5093097;28;20199;-73
2022/01/31 02:35:13;;;;;;;12.30;4.68;;;1.10;99.90;;;;;;5093933;28;20235;-73
2022/01/31 02:37:40;;;;;;;8.02;4.30;;;1.10;99.90;;;;;;5094219;28;20574;-73
2022/01/31 02:40:09;;;;;;;8.38;6.05;;;1.10;99.90;;;;;;5094422;28;20228;-72
2022/01/31 02:42:36;;;;;;;11.13;4.35;;;1.20;99.90;;;;;;5093393;28;20274;-72
2022/01/31 02:45:05;;;;;;;10.70;5.35;;;1.10;99.90;;;;;;5093829;28;20220;-72
2022/01/31 02:47:37;;;;;;;6.10;4.35;;;1.10;99.90;;;;;;5093959;28;20294;-73
2022/01/31 02:50:07;;;;;;;10.25;4.35;;;1.10;99.90;;;;;;5093516;28;20231;-71
2022/01/31 02:52:36;;;;;;;7.35;4.40;;;1.10;99.90;;;;;;5093070;28;20256;-71
2022/01/31 02:55:03;;;;;;;11.75;5.10;;;1.10;99.90;;;;;;5093086;28;20228;-71
2022/01/31 02:57:31;;;;;;;13.13;4.65;;;1.10;99.90;;;;;;5093371;28;20196;-72
2022/01/31 02:59:58;;;;;;;8.07;4.47;;;1.00;99.90;;;;;;5093065;28;20620;-71
2022/01/31 03:02:25;;;;;;;7.40;3.90;;;1.00;99.90;;;;;;5092899;28;20211;-72
2022/01/31 03:04:52;;;;;;;13.75;4.50;;;1.00;99.90;;;;;;5092786;28;20228;-70
2022/01/31 03:07:18;;;;;;;12.30;5.00;;;1.00;99.90;;;;;;5093071;28;20229;-72
2022/01/31 03:09:45;;;;;;;11.48;4.10;;;1.00;99.90;;;;;;5092971;28;20556;-71
2022/01/31 03:12:13;;;;;;;6.80;5.00;;;1.00;99.90;;;;;;5092637;28;20207;-71
2022/01/31 03:14:42;;;;;;;8.70;4.05;;;1.10;99.90;;;;;;5092967;28;20200;-71
2022/01/31 03:17:10;;;;;;;9.85;4.57;;;1.10;99.90;;;;;;5092043;28;20199;-70
2022/01/31 03:19:38;;;;;;;7.68;4.00;;;1.10;99.90;;;;;;5092748;28;20663;-71
2022/01/31 03:22:06;;;;;;;7.82;4.07;;;1.20;99.90;;;;;;5092285;28;20199;-71
2022/01/31 03:24:33;;;;;;;16.40;4.85;;;1.20;99.90;;;;;;5092376;28;20298;-70
2022/01/31 03:27:00;;;;;;;9.23;4.47;;;1.20;99.90;;;;;;5092580;28;20234;-71
2022/01/31 03:29:27;;;;;;;9.40;4.22;;;1.10;99.90;;;;;;5092541;28;20199;-71
2022/01/31 03:31:55;;;;;;;8.13;4.72;;;1.10;99.90;;;;;;5092361;28;20219;-70
2022/01/31 03:34:22;;;;;;;10.57;5.72;;;1.10;99.90;;;;;;5091868;28;20219;-71
2022/01/31 03:36:48;;;;;;;10.65;5.10;;;1.10;99.90;;;;;;5092294;28;20234;-70
2022/01/31 03:39:15;;;;;;;6.28;4.07;;;1.10;99.90;;;;;;5092251;28;20206;-71
2022/01/31 03:41:42;;;;;;;7.45;4.50;;;1.10;99.90;;;;;;5092455;28;20207;-70
2022/01/31 03:44:08;;;;;;;7.85;4.18;;;1.10;99.90;;;;;;5091722;28;20196;-70
2022/01/31 03:46:36;;;;;;;13.98;4.43;;;1.10;99.90;;;;;;5092076;28;20681;-71
2022/01/31 03:49:04;;;;;;;12.75;4.75;;;1.10;99.90;;;;;;5092115;28;20208;-71
2022/01/31 03:51:31;;;;;;;12.35;4.60;;;1.10;99.90;;;;;;5092242;28;20206;-71
2022/01/31 03:53:58;;;;;;;6.88;4.45;;;1.10;99.90;;;;;;5091554;28;20200;-70
2022/01/31 03:56:24;;;;;;;7.25;4.85;;;1.10;99.90;;;;;;5091799;28;20230;-71
2022/01/31 03:58:51;;;;;;;9.93;4.78;;;1.20;99.90;;;;;;5092164;28;20199;-69
2022/01/31 04:01:18;;;;;;;10.57;4.15;;;1.30;99.90;;;;;;5092188;28;20278;-70
2022/01/31 04:03:45;;;;;;;9.18;3.83;;;1.30;99.90;;;;;;5091628;28;20223;-71
2022/01/31 04:06:13;;;;;;;8.80;4.05;;;1.40;99.90;;;;;;5092090;28;20582;-71
2022/01/31 04:08:39;;;;;;;7.05;3.22;;;1.50;99.90;;;;;;5092575;28;20203;-71
2022/01/31 04:11:06;;;;;;;9.85;5.03;;;1.50;99.90;;;;;;5091759;28;20203;-70
2022/01/31 04:13:33;;;;;;;9.65;4.38;;;1.60;99.90;;;;;;5092101;28;20662;-71
2022/01/31 04:15:59;;;;;;;8.35;3.70;;;1.60;99.90;;;;;;5091413;28;20227;-71
2022/01/31 04:18:26;;;;;;;12.57;3.67;;;1.70;99.90;;;;;;5091654;28;20216;-71
2022/01/31 04:20:53;;;;;;;14.07;3.67;;;1.70;99.90;;;;;;5156348;22;20222;-96
2022/01/31 04:23:27;;;;;;;14.90;4.30;;;1.80;99.90;;;;;;5126161;28;20180;-94
2022/01/31 04:26:01;;;;;;;8.38;3.90;;;1.80;99.90;;;;;;5118697;28;20183;-96
2022/01/31 04:28:32;;;;;;;9.00;4.68;;;1.80;99.90;;;;;;5118261;28;20544;-94
2022/01/31 04:31:13;;;;;;;7.45;3.72;;;1.90;99.90;;;;;;5117482;28;20256;-95
2022/01/31 04:33:40;;;;;;;7.50;3.33;;;1.90;99.90;;;;;;5107474;22;20725;-73
2022/01/31 04:36:07;;;;;;;12.15;3.55;;;1.90;99.90;;;;;;5085415;28;20224;-74
2022/01/31 04:38:36;;;;;;;5.78;3.80;;;1.90;99.90;;;;;;5090942;28;20241;-74
2022/01/31 04:41:04;;;;;;;9.98;4.22;;;2.00;99.90;;;;;;5080844;28;20198;-74
2022/01/31 04:43:31;;;;;;;8.27;3.90;;;2.00;99.90;;;;;;5080114;28;20192;-74
2022/01/31 04:46:01;;;;;;;7.18;4.25;;;2.00;99.90;;;;;;5080045;28;20212;-75
2022/01/31 04:48:27;;;;;;;8.23;4.40;;;2.00;99.90;;;;;;5081055;28;20214;-74
2022/01/31 04:50:54;;;;;;;9.10;4.07;;;2.00;99.90;;;;;;5080483;28;20275;-74
2022/01/31 04:53:22;;;;;;;8.70;4.20;;;2.00;99.90;;;;;;5077911;28;20192;-74
2022/01/31 04:55:50;;;;;;;8.73;4.57;;;2.10;99.90;;;;;;5076854;28;20224;-74
2022/01/31 04:58:19;;;;;;;6.07;3.80;;;2.00;99.90;;;;;;5078082;28;20188;-75
2022/01/31 05:00:46;;;;;;;8.90;4.45;;;2.00;99.90;;;;;;5072652;28;20193;-74
2022/01/31 05:03:15;;;;;;;7.00;3.75;;;2.00;99.90;;;;;;5078338;28;20581;-74
2022/01/31 05:05:43;;;;;;;13.40;5.15;;;2.00;99.90;;;;;;5078589;28;20677;-74
2022/01/31 05:08:10;;;;;;;6.32;4.03;;;2.00;99.90;;;;;;5078939;28;20648;-74
2022/01/31 05:10:43;;;;;;;6.85;4.03;;;2.00;99.90;;;;;;5079139;28;20200;-74
2022/01/31 05:13:11;;;;;;;10.55;4.65;;;2.00;99.90;;;;;;5080699;28;20200;-74
2022/01/31 05:15:38;;;;;;;7.88;4.00;;;2.00;99.90;;;;;;5080963;28;20595;-73
2022/01/31 05:18:05;;;;;;;10.13;4.28;;;2.00;99.90;;;;;;5080299;28;20192;-73
2022/01/31 05:20:31;;;;;;;10.77;4.18;;;2.00;99.90;;;;;;5080592;28;20192;-74
2022/01/31 05:22:58;;;;;;;7.10;4.50;;;2.00;99.90;;;;;;5078351;28;20200;-73
2022/01/31 05:25:25;;;;;;;9.57;4.53;;;2.00;99.90;;;;;;5077289;28;20783;-72
2022/01/31 05:27:52;;;;;;;4.75;3.40;;;2.10;99.90;;;;;;5090167;28;20571;-71
2022/01/31 05:30:22;;;;;;;6.72;3.40;;;2.20;99.90;;;;;;5087936;28;20203;-71
2022/01/31 05:32:49;;;;;;;7.53;4.00;;;2.20;99.90;;;;;;5089655;28;20215;-72
2022/01/31 05:35:15;;;;;;;10.00;3.92;;;2.20;99.90;;;;;;5089666;28;20227;-71
2022/01/31 05:37:42;;;;;;;4.72;3.03;;;2.40;99.90;;;;;;5089335;28;20697;-71
2022/01/31 05:40:10;;;;;;;9.88;3.45;;;2.50;99.90;;;;;;5091880;28;20294;-72
2022/01/31 05:42:37;;;;;;;5.43;3.25;;;2.60;99.90;;;;;;5093721;28;20214;-71
2022/01/31 05:45:06;;;;;;;10.23;3.38;;;2.60;99.90;;;;;;5094442;28;20591;-71
2022/01/31 05:47:35;;;;;;;5.93;3.33;;;2.70;99.90;;;;;;5094730;28;20627;-72
2022/01/31 05:50:02;;;;;;;6.45;3.55;;;2.70;99.90;;;;;;5094680;28;20195;-72
2022/01/31 05:52:28;;;;;;;9.50;4.10;;;2.70;99.90;;;;;;5093986;28;20196;-72
2022/01/31 05:54:55;;;;;;;7.65;3.70;;;2.80;99.90;;;;;;5094560;28;20343;-72
2022/01/31 05:57:22;;;;;;;4.93;2.97;;;2.90;99.90;;;;;;5094186;28;20221;-72
2022/01/31 05:59:50;;;;;;;3.35;2.55;;;2.90;99.90;;;;;;5094615;28;20206;-72
2022/01/31 06:02:17;;;;;;;7.22;3.15;;;2.90;99.90;;;;;;5093786;28;20200;-73
2022/01/31 06:04:45;;;;;;;6.15;3.38;;;2.90;99.90;;;;;;5094524;28;20529;-72
2022/01/31 06:07:12;;;;;;;4.57;2.80;;;2.90;99.90;;;;;;5094355;28;20202;-72
2022/01/31 06:09:39;;;;;;;4.15;3.45;;;2.90;99.90;;;;;;5094098;28;20211;-72
2022/01/31 06:12:06;;;;;;;9.75;3.80;;;2.90;99.90;;;;;;5094089;28;20730;-71
2022/01/31 06:14:34;;;;;;;5.75;4.10;;;2.90;99.90;;;;;;5093842;28;20559;-71
2022/01/31 06:17:01;;;;;;;12.10;5.00;;;2.90;99.90;;;;;;5094017;28;20661;-70
2022/01/31 06:19:29;;;;;;;8.18;3.25;;;2.90;99.90;;;;;;5094075;28;20214;-71
2022/01/31 06:21:57;;;;;;;11.55;4.00;;;2.90;99.90;;;;;;5094180;28;20204;-71
2022/01/31 06:24:24;;;;;;;9.18;3.70;;;2.90;99.90;;;;;;5093412;28;20204;-71
2022/01/31 06:26:51;;;;;;;6.43;3.58;;;2.80;99.90;;;;;;5094115;28;20660;-72
2022/01/31 06:29:19;;;;;;;4.82;3.20;;;2.80;99.90;;;;;;5093710;28;20203;-72
2022/01/31 06:31:45;;;;;;;8.55;4.15;;;2.70;99.90;;;;;;5093908;28;20196;-72
2022/01/31 06:34:12;;;;;;;7.90;3.20;;;2.60;99.90;;;;;;5093244;28;20208;-70
2022/01/31 06:36:39;;;;;;;7.32;3.45;;;2.60;99.90;;;;;;5089436;28;20223;-71
2022/01/31 06:39:07;;;;;;;4.90;3.45;;;2.60;99.90;;;;;;5092398;28;20207;-71
2022/01/31 06:41:34;;;;;;;5.60;3.75;;;2.60;99.90;;;;;;5092799;28;20702;-72
2022/01/31 06:44:01;;;;;;;10.65;3.70;;;2.60;99.90;;;;;;5091980;28;20195;-71
2022/01/31 06:46:27;;;;;;;10.50;3.72;;;2.60;99.90;;;;;;5092266;28;20584;-71
2022/01/31 06:48:54;;;;;;;8.15;4.10;;;2.50;99.90;;;;;;5092935;28;20200;-71
2022/01/31 06:51:21;;;;;;;10.50;4.03;;;2.50;99.90;;;;;;5091061;28;20574;-70
2022/01/31 06:53:48;;;;;;;9.68;3.95;;;2.40;99.90;;;;;;5091773;28;20212;-70
2022/01/31 06:56:17;;;;;;;7.07;3.80;;;2.40;99.90;;;;;;5092360;28;20224;-71
2022/01/31 06:58:44;;;;;;;7.80;3.60;;;2.40;99.90;;;;;;5092358;28;20585;-70
2022/01/31 07:01:11;;;;;;;5.80;3.58;;;2.40;99.90;;;;;;5092871;28;20699;-72
2022/01/31 07:03:40;;;;;;;5.15;3.92;;;2.40;99.90;;;;;;5091621;28;20693;-72
2022/01/31 07:06:07;;;;;;;6.50;4.78;;;2.30;99.90;;;;;;5091857;28;20312;-71
2022/01/31 07:08:33;;;;;;;11.02;4.80;;;2.30;99.90;;;;;;5092006;28;20209;-71
2022/01/31 07:11:00;;;;;;;29.60;17.02;;;2.30;99.90;;;;;;5092292;28;20200;-71
2022/01/31 07:13:38;;;;;;;13.75;6.68;;;2.30;99.90;;;;;;5091107;28;20203;-71
2022/01/31 07:16:06;;;;;;;8.20;5.47;;;2.40;99.90;;;;;;5085811;28;20217;-71
2022/01/31 07:18:35;;;;;;;11.93;6.10;;;2.40;99.90;;;;;;5080269;28;20835;-72
2022/01/31 07:21:02;;;;;;;14.82;6.80;;;2.40;99.90;;;;;;5080688;28;20203;-70
2022/01/31 07:23:39;;;;;;;9.73;4.63;;;2.40;99.90;;;;;;5080476;28;20196;-72
2022/01/31 07:26:06;;;;;;;9.90;4.75;;;2.40;99.90;;;;;;5081076;28;20577;-71
2022/01/31 07:28:34;;;;;;;10.88;4.03;;;2.40;99.90;;;;;;5080835;28;20196;-71
2022/01/31 07:31:00;;;;;;;5.82;4.18;;;2.40;99.90;;;;;;5080195;28;20196;-70
2022/01/31 07:33:27;;;;;;;9.80;6.30;;;2.40;99.90;;;;;;5080997;28;20200;-71
2022/01/31 07:35:54;;;;;;;7.72;5.00;;;2.40;99.90;;;;;;5081132;28;20303;-71
2022/01/31 07:38:21;;;;;;;14.85;8.52;;;2.40;99.90;;;;;;5088956;28;20249;-71
2022/01/31 07:40:48;;;;;;;9.18;5.28;;;2.50;99.90;;;;;;5091866;28;20200;-71
2022/01/31 07:43:15;;;;;;;20.80;9.43;;;2.50;99.90;;;;;;5090320;28;20200;-70
2022/01/31 07:45:43;;;;;;;10.40;4.90;;;2.50;99.90;;;;;;5090999;28;20250;-70
2022/01/31 07:48:10;;;;;;;15.10;7.55;;;2.50;99.90;;;;;;5089046;28;20200;-72
2022/01/31 07:50:37;;;;;;;6.85;4.45;;;2.60;99.90;;;;;;5091292;28;20203;-71
2022/01/31 07:53:05;;;;;;;11.43;7.32;;;2.60;99.90;;;;;;5091153;28;20587;-70
2022/01/31 07:55:32;;;;;;;10.15;3.20;;;2.60;99.90;;;;;;5091110;28;20230;-71
2022/01/31 07:57:58;;;;;;;5.93;3.30;;;2.60;99.90;;;;;;5091263;28;20223;-70
2022/01/31 08:00:26;;;;;;;5.93;3.00;;;2.60;99.90;;;;;;5091515;28;20264;-71
2022/01/31 08:02:56;;;;;;;5.43;3.10;;;2.60;99.90;;;;;;5090859;28;20298;-71
2022/01/31 08:05:23;;;;;;;5.25;2.60;;;2.60;99.90;;;;;;5090816;28;20726;-73
2022/01/31 08:07:50;;;;;;;3.65;2.25;;;2.60;99.90;;;;;;5091377;28;20207;-71
2022/01/31 08:10:17;;;;;;;6.10;2.40;;;2.60;99.90;;;;;;5091350;28;20206;-70
2022/01/31 08:12:44;;;;;;;5.63;2.33;;;2.70;99.90;;;;;;5090194;28;20211;-71
2022/01/31 08:15:19;;;;;;;4.57;2.20;;;2.70;99.90;;;;;;5082638;28;20569;-71
2022/01/31 08:17:46;;;;;;;3.35;2.30;;;2.70;99.90;;;;;;5070209;28;20691;-71
2022/01/31 08:20:14;;;;;;;6.00;2.55;;;2.70;99.90;;;;;;5070449;28;20215;-71
2022/01/31 08:22:42;;;;;;;2.45;2.20;;;2.80;99.90;;;;;;5069671;28;20596;-71
2022/01/31 08:25:14;;;;;;;2.72;2.20;;;2.80;99.90;;;;;;5071833;28;20274;-71
2022/01/31 08:27:42;;;;;;;2.60;2.20;;;2.80;99.90;;;;;;5070629;28;20664;-71
2022/01/31 08:30:14;;;;;;;3.70;2.60;;;2.90;99.90;;;;;;5070510;28;20621;-71
2022/01/31 08:32:46;;;;;;;2.90;2.17;;;2.90;99.90;;;;;;5069826;28;20638;-71
2022/01/31 08:37:59;;;;;;;1.90;1.45;;;3.00;99.90;;;;;;5070375;28;20289;-70
2022/01/31 08:40:26;;;;;;;1.95;1.73;;;3.00;99.90;;;;;;5070107;28;20204;-71
2022/01/31 08:42:53;;;;;;;2.72;1.90;;;3.00;99.90;;;;;;5069055;28;20223;-69
2022/01/31 08:45:20;;;;;;;2.88;1.75;;;3.00;99.90;;;;;;5069099;28;20227;-72
2022/01/31 08:47:47;;;;;;;5.10;1.90;;;3.10;99.90;;;;;;5078345;28;20192;-72
2022/01/31 08:50:15;;;;;;;1.80;1.40;;;3.20;99.90;;;;;;5086652;28;20202;-72
2022/01/31 08:52:41;;;;;;;2.63;1.30;;;3.30;99.90;;;;;;5089262;28;20199;-73
2022/01/31 08:55:11;;;;;;;1.75;1.48;;;3.50;99.90;;;;;;5089103;28;20228;-72
2022/01/31 08:57:38;;;;;;;2.17;1.30;;;3.60;99.90;;;;;;5089212;28;20246;-71
2022/01/31 09:00:07;;;;;;;2.20;1.40;;;3.80;99.90;;;;;;5089806;28;20663;-72
2022/01/31 09:02:39;;;;;;;1.63;1.20;;;3.90;99.90;;;;;;5089076;28;20274;-72
2022/01/31 09:05:07;;;;;;;1.60;1.35;;;3.90;99.90;;;;;;5089469;28;20219;-72
2022/01/31 09:07:36;;;;;;;1.40;1.30;;;4.30;99.90;;;;;;5089628;28;20204;-72
2022/01/31 09:10:03;;;;;;;4.60;2.20;;;4.70;99.90;;;;;;5090262;28;21164;-73
2022/01/31 09:12:33;;;;;;;1.63;1.52;;;4.70;99.90;;;;;;5088710;28;20196;-72
2022/01/31 09:15:00;;;;;;;2.25;1.63;;;4.70;99.90;;;;;;5088693;28;20223;-71
2022/01/31 09:17:26;;;;;;;3.05;1.60;;;4.90;99.90;;;;;;5089274;28;20216;-73
2022/01/31 09:19:53;;;;;;;2.83;1.45;;;5.50;99.90;;;;;;5089578;28;20212;-72
2022/01/31 09:22:20;;;;;;;3.08;1.75;;;6.60;99.90;;;;;;5089278;28;20196;-71
2022/01/31 09:24:50;;;;;;;1.80;1.60;;;7.50;99.90;;;;;;5089472;28;20722;-71
2022/01/31 09:27:17;;;;;;;1.75;1.40;;;8.50;99.90;;;;;;5088983;28;20220;-73
2022/01/31 09:29:44;;;;;;;2.45;1.52;;;9.40;99.90;;;;;;5089663;28;20210;-73
2022/01/31 09:32:12;;;;;;;2.35;1.40;;;10.10;99.90;;;;;;5089174;28;20203;-71
2022/01/31 09:34:39;;;;;;;8.55;1.48;;;10.50;99.90;;;;;;5086648;28;20625;-72
2022/01/31 09:37:06;;;;;;;1.73;1.38;;;10.30;99.90;;;;;;5087528;28;20216;-72
2022/01/31 09:39:34;;;;;;;2.65;1.20;;;9.90;99.90;;;;;;5088172;28;20287;-72
2022/01/31 09:42:04;;;;;;;2.03;1.10;;;9.50;99.90;;;;;;5087931;28;20199;-71
2022/01/31 09:44:47;;;;;;;2.75;1.73;;;8.90;99.90;;;;;;5087780;28;20223;-72
2022/01/31 09:47:22;;;;;;;1.85;1.30;;;8.20;99.90;;;;;;5087971;28;20231;-70
2022/01/31 09:49:52;;;;;;;3.13;1.50;;;7.70;99.90;;;;;;5089815;28;20615;-72
2022/01/31 09:52:19;;;;;;;3.03;1.40;;;7.10;99.90;;;;;;5089043;28;20200;-72
2022/01/31 09:54:48;;;;;;;1.10;1.00;;;6.50;99.90;;;;;;5089472;28;20219;-72
2022/01/31 09:57:17;;;;;;;3.17;1.90;;;6.20;99.90;;;;;;5088842;28;20286;-71
2022/01/31 09:59:43;;;;;;;2.67;1.75;;;6.20;99.90;;;;;;5089655;28;20204;-72
2022/01/31 10:02:11;;;;;;;2.20;1.40;;;6.20;99.90;;;;;;5089439;28;20744;-72
2022/01/31 10:04:44;;;;;;;4.57;1.73;;;5.90;99.90;;;;;;5088825;28;20204;-72
2022/01/31 10:07:13;;;;;;;2.75;2.05;;;5.80;99.90;;;;;;5089306;28;20202;-71
2022/01/31 10:09:39;;;;;;;2.78;1.73;;;5.60;99.90;;;;;;5089475;28;20222;-71
2022/01/31 10:12:10;;;;;;;2.13;1.70;;;5.50;99.90;;;;;;5089111;28;20207;-72
2022/01/31 10:17:26;;;;;;;2.80;1.77;;;5.30;99.90;;;;;;5088728;28;20226;-71
2022/01/31 10:19:55;;;;;;;1.75;1.40;;;5.20;99.90;;;;;;5089541;28;20207;-72
2022/01/31 10:22:24;;;;;;;1.83;1.40;;;5.10;99.90;;;;;;5089100;28;20253;-72
2022/01/31 10:24:53;;;;;;;3.45;1.50;;;5.00;99.90;;;;;;5088782;28;20231;-71
2022/01/31 10:27:23;;;;;;;4.75;1.70;;;5.00;99.90;;;;;;5091509;28;20196;-72
2022/01/31 10:29:53;;;;;;;2.75;1.95;;;4.90;99.90;;;;;;5093194;28;20630;-72
2022/01/31 10:32:26;;;;;;;2.78;1.80;;;4.90;99.90;;;;;;5091919;28;20212;-71
2022/01/31 10:34:55;;;;;;;2.08;1.58;;;4.90;99.90;;;;;;5093259;28;20223;-72
2022/01/31 10:37:23;;;;;;;4.18;1.63;;;5.00;99.90;;;;;;5092026;28;20228;-71
2022/01/31 10:45:36;;;;;;;5.13;1.83;;;5.50;99.90;;;;;;5091894;28;20583;-72
2022/01/31 10:51:53;;;;;;;4.70;1.90;;;6.10;99.90;;;;;;5093270;28;20240;-72
2022/01/31 10:54:36;;;;;;;4.80;1.90;;;6.40;99.90;;;;;;5088320;28;20250;-72
2022/01/31 10:57:05;;;;;;;2.80;1.50;;;6.70;99.90;;;;;;5088642;28;20202;-73
2022/01/31 10:59:34;;;;;;;2.28;1.48;;;6.90;99.90;;;;;;5092285;28;20200;-72
2022/01/31 11:02:07;;;;;;;3.38;1.65;;;6.80;99.90;;;;;;5092008;28;20206;-73
2022/01/31 11:04:35;;;;;;;1.67;1.42;;;6.70;99.90;;;;;;5091780;28;20207;-72
2022/01/31 11:07:04;;;;;;;3.80;1.70;;;6.60;99.90;;;;;;5091756;28;20207;-73
2022/01/31 11:09:31;;;;;;;4.28;2.03;;;6.40;99.90;;;;;;5092127;28;20202;-72
2022/01/31 11:11:59;;;;;;;3.50;1.63;;;6.20;99.90;;;;;;5091951;28;20195;-72
2022/01/31 11:14:26;;;;;;;4.10;2.05;;;6.10;99.90;;;;;;5091268;28;20235;-72
2022/01/31 11:16:55;;;;;;;4.20;2.00;;;5.90;99.90;;;;;;5091273;28;20199;-72
2022/01/31 11:19:31;;;;;;;5.10;1.48;;;5.70;99.90;;;;;;5091955;28;20269;-73
2022/01/31 11:22:01;;;;;;;2.95;1.90;;;5.60;99.90;;;;;;5092183;28;20574;-72
2022/01/31 11:24:32;;;;;;;2.97;1.75;;;5.50;99.90;;;;;;5090768;28;20208;-72
2022/01/31 11:27:04;;;;;;;3.70;1.55;;;5.50;99.90;;;;;;5091702;28;20204;-72
2022/01/31 11:29:32;;;;;;;6.93;1.60;;;5.60;99.90;;;;;;5091823;28;20203;-72
2022/01/31 11:32:00;;;;;;;3.15;1.73;;;5.60;99.90;;;;;;5091615;28;20226;-72
2022/01/31 11:34:29;;;;;;;2.35;2.05;;;5.50;99.90;;;;;;5090900;28;20277;-72
2022/01/31 11:36:56;;;;;;;2.17;1.30;;;5.50;99.90;;;;;;5091270;28;20666;-73
2022/01/31 11:39:23;;;;;;;3.60;2.05;;;5.30;99.90;;;;;;5090488;28;20196;-73
2022/01/31 11:41:55;;;;;;;2.88;1.70;;;5.20;99.90;;;;;;5091630;28;20210;-73
2022/01/31 11:44:32;;;;;;;3.97;1.83;;;5.10;99.90;;;;;;5090842;28;20204;-73
2022/01/31 11:47:02;;;;;;;6.70;1.63;;;4.90;99.90;;;;;;5091312;28;20195;-72
2022/01/31 11:49:43;;;;;;;6.15;2.97;;;4.90;99.90;;;;;;5092082;28;20211;-73
2022/01/31 11:52:10;;;;;;;2.97;1.55;;;4.90;99.90;;;;;;5091412;28;20575;-72
2022/01/31 11:54:45;;;;;;;2.65;1.73;;;4.90;99.90;;;;;;5090541;28;20615;-72
2022/01/31 11:57:16;;;;;;;1.95;1.50;;;4.80;99.90;;;;;;5091036;28;20207;-72
2022/01/31 11:59:43;;;;;;;4.90;1.77;;;4.80;99.90;;;;;;5091016;28;20207;-73
2022/01/31 12:02:14;;;;;;;2.05;1.35;;;4.70;99.90;;;;;;5090581;28;20199;-72
2022/01/31 12:04:48;;;;;;;3.65;2.58;;;4.80;99.90;;;;;;5091127;28;20228;-72
2022/01/31 12:07:43;;;;;;;2.97;1.58;;;4.70;99.90;;;;;;5090791;28;20199;-73
2022/01/31 12:10:17;;;;;;;1.58;1.20;;;4.70;99.90;;;;;;5032096;28;20199;-72
2022/01/31 12:12:53;;;;;;;3.40;1.70;;;4.70;99.90;;;;;;5090786;28;20214;-73
2022/01/31 12:24:27;;;;;;;1.67;1.40;;;4.50;99.90;;;;;;5090083;28;20203;-73
2022/01/31 12:26:56;;;;;;;1.75;1.50;;;4.40;99.90;;;;;;5090193;28;20200;-72
2022/01/31 12:29:25;;;;;;;3.78;1.80;;;4.40;99.90;;;;;;5090349;28;20577;-73
2022/01/31 12:31:54;;;;;;;8.27;3.20;;;4.30;99.90;;;;;;5090362;28;20204;-72
2022/01/31 12:34:40;;;;;;;3.38;1.70;;;4.30;99.90;;;;;;5089509;28;20564;-72
2022/01/31 12:37:31;;;;;;;3.72;1.77;;;4.20;99.90;;;;;;5090046;28;20196;-72
2022/01/31 12:40:07;;;;;;;2.60;1.33;;;4.20;99.90;;;;;;5090027;28;20233;-72
2022/01/31 12:42:51;;;;;;;6.15;1.63;;;4.10;99.90;;;;;;5089513;28;20203;-72
2022/01/31 12:45:21;;;;;;;3.10;2.00;;;4.10;99.90;;;;;;5089655;28;20531;-72
2022/01/31 12:48:16;;;;;;;2.35;1.75;;;4.10;99.90;;;;;;5090242;28;20561;-72
2022/01/31 12:50:46;;;;;;;5.00;1.98;;;4.10;99.90;;;;;;5088849;28;20212;-72
2022/01/31 12:53:50;;;;;;;4.18;1.92;;;4.10;99.90;;;;;;5089465;28;20235;-72
2022/01/31 12:56:25;;;;;;;5.57;2.30;;;4.00;99.90;;;;;;5089269;28;20644;-72
2022/01/31 12:58:58;;;;;;;5.28;1.80;;;4.10;99.90;;;;;;5089761;28;20215;-72
2022/01/31 13:01:27;;;;;;;4.47;2.08;;;4.00;99.90;;;;;;5089216;28;20211;-72
2022/01/31 13:03:56;;;;;;;5.30;2.03;;;4.00;99.90;;;;;;5089549;28;20489;-72
2022/01/31 13:06:39;;;;;;;2.75;1.80;;;4.00;99.90;;;;;;5088709;28;20564;-72
2022/01/31 13:09:16;;;;;;;2.78;1.98;;;4.00;99.90;;;;;;5089857;28;20571;-72
2022/01/31 13:11:45;;;;;;;2.63;1.65;;;3.90;99.90;;;;;;5089754;28;20211;-72
2022/01/31 13:14:15;;;;;;;3.90;1.58;;;3.80;99.90;;;;;;5089418;28;20227;-72
2022/01/31 13:16:57;;;;;;;3.67;1.98;;;3.80;99.90;;;;;;5089409;28;20607;-73
2022/01/31 13:19:25;;;;;;;4.25;1.70;;;3.80;99.90;;;;;;5089537;28;20315;-72
2022/01/31 13:21:54;;;;;;;2.65;1.60;;;3.70;99.90;;;;;;5088049;28;20203;-72
2022/01/31 13:24:42;;;;;;;1.63;1.50;;;3.70;99.90;;;;;;5085936;28;20207;-72
2022/01/31 13:27:10;;;;;;;3.60;1.48;;;3.70;99.90;;;;;;5089163;28;20200;-72
2022/01/31 13:29:43;;;;;;;3.60;2.00;;;3.70;99.90;;;;;;5089140;28;20192;-72